sensor_id;sensor_type;location;lat;lon;timestamp;pressure;altitude;pressure_sealevel;temperature;humidity
22311;BME280;11323;49.610;11.016;2023-02-02T00:01:59;98297.81;;;11.81;nan
22311;BME280;11323;49.610;11.016;2023-02-02T00:07:01;98295.22;;;11.81;nan
22311;BME280;11323;49.610;11.016;2023-02-02T00:12:02;98285.63;;;11.72;nan
22311;BME280;11323;49.610;11.016;2023-02-02T00:17:02;98293.47;;;11.72;nan
22311;BME280;11323;49.610;11.016;2023-02-02T00:22:04;98285.34;;;11.75;nan
22311;BME280;11323;49.610;11.016;2023-02-02T00:27:04;98301.59;;;11.69;nan
22311;BME280;11323;49.610;11.016;2023-02-02T00:32:04;98307.47;;;11.71;nan
22311;BME280;11323;49.610;11.016;2023-02-02T00:37:05;98332.25;;;11.67;nan
22311;BME280;11323;49.610;11.016;2023-02-02T00:42:07;98330.75;;;11.64;nan
22311;BME280;11323;49.610;11.016;2023-02-02T00:47:07;98355.22;;;11.63;nan
22311;BME280;11323;49.610;11.016;2023-02-02T00:52:08;98341.34;;;11.63;nan
22311;BME280;11323;49.610;11.016;2023-02-02T00:57:12;98337.16;;;11.52;nan
22311;BME280;11323;49.610;11.016;2023-02-02T01:02:12;98341.66;;;11.59;nan
22311;BME280;11323;49.610;11.016;2023-02-02T01:07:13;98349.75;;;11.56;nan
22311;BME280;11323;49.610;11.016;2023-02-02T01:12:13;98367.19;;;11.56;nan
22311;BME280;11323;49.610;11.016;2023-02-02T01:17:14;98359.53;;;11.54;nan
22311;BME280;11323;49.610;11.016;2023-02-02T01:22:14;98368.75;;;11.49;nan
22311;BME280;11323;49.610;11.016;2023-02-02T01:27:14;98372.03;;;11.51;nan
22311;BME280;11323;49.610;11.016;2023-02-02T01:32:15;98367.25;;;11.46;nan
22311;BME280;11323;49.610;11.016;2023-02-02T01:37:15;98376.75;;;11.47;nan
22311;BME280;11323;49.610;11.016;2023-02-02T01:42:20;98392.53;;;11.46;nan
22311;BME280;11323;49.610;11.016;2023-02-02T01:47:25;98382.06;;;11.46;nan
22311;BME280;11323;49.610;11.016;2023-02-02T01:52:27;98398.03;;;11.42;nan
22311;BME280;11323;49.610;11.016;2023-02-02T01:57:33;98389.38;;;11.42;nan
22311;BME280;11323;49.610;11.016;2023-02-02T02:02:37;98396.69;;;11.38;nan
22311;BME280;11323;49.610;11.016;2023-02-02T02:07:41;98392.56;;;11.36;nan
22311;BME280;11323;49.610;11.016;2023-02-02T02:12:44;98374.31;;;11.36;nan
22311;BME280;11323;49.610;11.016;2023-02-02T02:17:58;98363.19;;;11.34;nan
22311;BME280;11323;49.610;11.016;2023-02-02T02:23:30;98380.78;;;11.32;nan
22311;BME280;11323;49.610;11.016;2023-02-02T02:34:32;98390.69;;;11.28;nan
22311;BME280;11323;49.610;11.016;2023-02-02T02:39:41;98396.84;;;11.27;nan
22311;BME280;11323;49.610;11.016;2023-02-02T02:44:46;98393.13;;;11.30;nan
22311;BME280;11323;49.610;11.016;2023-02-02T02:49:48;98397.66;;;11.27;nan
22311;BME280;11323;49.610;11.016;2023-02-02T02:54:50;98398.94;;;11.23;nan
22311;BME280;11323;49.610;11.016;2023-02-02T03:10:23;98416.78;;;11.18;nan
22311;BME280;11323;49.610;11.016;2023-02-02T03:15:25;98416.50;;;11.21;nan
22311;BME280;11323;49.610;11.016;2023-02-02T03:20:26;98423.66;;;11.19;nan
22311;BME280;11323;49.610;11.016;2023-02-02T03:25:26;98419.66;;;11.15;nan
22311;BME280;11323;49.610;11.016;2023-02-02T03:30:27;98410.50;;;11.11;nan
22311;BME280;11323;49.610;11.016;2023-02-02T03:35:27;98416.78;;;11.18;nan
22311;BME280;11323;49.610;11.016;2023-02-02T03:40:28;98422.28;;;11.15;nan
22311;BME280;11323;49.610;11.016;2023-02-02T03:45:29;98417.34;;;11.12;nan
22311;BME280;11323;49.610;11.016;2023-02-02T03:50:31;98418.16;;;11.12;nan
22311;BME280;11323;49.610;11.016;2023-02-02T03:55:32;98398.41;;;11.10;nan
22311;BME280;11323;49.610;11.016;2023-02-02T04:00:32;98391.81;;;11.06;nan
22311;BME280;11323;49.610;11.016;2023-02-02T04:05:33;98405.28;;;11.11;nan
22311;BME280;11323;49.610;11.016;2023-02-02T04:10:33;98415.72;;;11.11;nan
22311;BME280;11323;49.610;11.016;2023-02-02T04:15:33;98402.00;;;10.99;nan
22311;BME280;11323;49.610;11.016;2023-02-02T04:20:34;98427.53;;;11.05;nan
22311;BME280;11323;49.610;11.016;2023-02-02T04:25:34;98442.06;;;11.08;nan
22311;BME280;11323;49.610;11.016;2023-02-02T04:30:34;98443.97;;;11.06;nan
22311;BME280;11323;49.610;11.016;2023-02-02T04:35:35;98455.38;;;11.05;nan
22311;BME280;11323;49.610;11.016;2023-02-02T04:40:44;98456.34;;;11.04;nan
22311;BME280;11323;49.610;11.016;2023-02-02T04:45:44;98450.56;;;11.00;nan
22311;BME280;11323;49.610;11.016;2023-02-02T04:50:45;98441.00;;;11.01;nan
22311;BME280;11323;49.610;11.016;2023-02-02T04:55:45;98455.78;;;11.00;nan
22311;BME280;11323;49.610;11.016;2023-02-02T05:00:45;98456.91;;;10.97;nan
22311;BME280;11323;49.610;11.016;2023-02-02T05:05:46;98462.13;;;10.97;nan
22311;BME280;11323;49.610;11.016;2023-02-02T05:10:46;98459.50;;;10.97;nan
22311;BME280;11323;49.610;11.016;2023-02-02T05:15:49;98466.53;;;10.97;nan
22311;BME280;11323;49.610;11.016;2023-02-02T05:20:50;98467.91;;;10.91;nan
22311;BME280;11323;49.610;11.016;2023-02-02T05:25:51;98477.06;;;10.95;nan
22311;BME280;11323;49.610;11.016;2023-02-02T05:30:52;98479.00;;;10.93;nan
22311;BME280;11323;49.610;11.016;2023-02-02T05:35:53;98491.22;;;10.93;nan
22311;BME280;11323;49.610;11.016;2023-02-02T05:40:53;98485.16;;;10.92;nan
22311;BME280;11323;49.610;11.016;2023-02-02T05:45:54;98495.59;;;10.92;nan
22311;BME280;11323;49.610;11.016;2023-02-02T05:50:59;98494.94;;;10.90;nan
22311;BME280;11323;49.610;11.016;2023-02-02T05:56:01;98497.81;;;10.87;nan
22311;BME280;11323;49.610;11.016;2023-02-02T06:01:02;98484.78;;;10.87;nan
22311;BME280;11323;49.610;11.016;2023-02-02T06:06:02;98483.81;;;10.88;nan
22311;BME280;11323;49.610;11.016;2023-02-02T06:11:10;98487.53;;;10.86;nan
22311;BME280;11323;49.610;11.016;2023-02-02T06:16:11;98481.63;;;10.84;nan
22311;BME280;11323;49.610;11.016;2023-02-02T06:21:12;98492.88;;;10.84;nan
22311;BME280;11323;49.610;11.016;2023-02-02T06:26:13;98489.31;;;10.85;nan
22311;BME280;11323;49.610;11.016;2023-02-02T06:31:14;98496.44;;;10.83;nan
22311;BME280;11323;49.610;11.016;2023-02-02T06:36:18;98495.63;;;10.82;nan
22311;BME280;11323;49.610;11.016;2023-02-02T06:41:19;98492.31;;;10.80;nan
22311;BME280;11323;49.610;11.016;2023-02-02T06:46:19;98493.81;;;10.83;nan
22311;BME280;11323;49.610;11.016;2023-02-02T06:51:20;98497.69;;;10.79;nan
22311;BME280;11323;49.610;11.016;2023-02-02T06:56:20;98498.50;;;10.79;nan
22311;BME280;11323;49.610;11.016;2023-02-02T07:01:22;98497.94;;;10.76;nan
22311;BME280;11323;49.610;11.016;2023-02-02T07:06:24;98492.59;;;10.77;nan
22311;BME280;11323;49.610;11.016;2023-02-02T07:11:25;98496.28;;;10.75;nan
22311;BME280;11323;49.610;11.016;2023-02-02T07:16:26;98507.41;;;10.77;nan
22311;BME280;11323;49.610;11.016;2023-02-02T07:21:26;98516.19;;;10.76;nan
22311;BME280;11323;49.610;11.016;2023-02-02T07:26:34;98516.19;;;10.76;nan
22311;BME280;11323;49.610;11.016;2023-02-02T07:31:35;98530.19;;;10.75;nan
22311;BME280;11323;49.610;11.016;2023-02-02T07:36:35;98523.31;;;10.74;nan
22311;BME280;11323;49.610;11.016;2023-02-02T07:41:36;98523.06;;;10.77;nan
22311;BME280;11323;49.610;11.016;2023-02-02T07:46:36;98531.28;;;10.82;nan
22311;BME280;11323;49.610;11.016;2023-02-02T07:51:37;98531.03;;;10.85;nan
22311;BME280;11323;49.610;11.016;2023-02-02T07:56:37;98529.09;;;10.87;nan
22311;BME280;11323;49.610;11.016;2023-02-02T08:01:38;98536.09;;;10.96;nan
22311;BME280;11323;49.610;11.016;2023-02-02T08:06:39;98540.34;;;10.97;nan
22311;BME280;11323;49.610;11.016;2023-02-02T08:11:39;98549.13;;;10.96;nan
22311;BME280;11323;49.610;11.016;2023-02-02T08:16:40;98520.06;;;10.91;nan
22311;BME280;11323;49.610;11.016;2023-02-02T08:21:40;98539.41;;;10.99;nan
22311;BME280;11323;49.610;11.016;2023-02-02T08:26:41;98548.88;;;11.00;nan
22311;BME280;11323;49.610;11.016;2023-02-02T08:31:42;98548.63;;;11.03;nan
22311;BME280;11323;49.610;11.016;2023-02-02T08:36:42;98550.53;;;11.01;nan
22311;BME280;11323;49.610;11.016;2023-02-02T08:41:43;98546.13;;;11.01;nan
22311;BME280;11323;49.610;11.016;2023-02-02T08:46:44;98552.31;;;11.10;nan
22311;BME280;11323;49.610;11.016;2023-02-02T08:51:44;98560.81;;;11.02;nan
22311;BME280;11323;49.610;11.016;2023-02-02T08:56:45;98550.66;;;10.99;nan
22311;BME280;11323;49.610;11.016;2023-02-02T09:01:45;98557.41;;;11.02;nan
22311;BME280;11323;49.610;11.016;2023-02-02T09:06:46;98550.91;;;11.06;nan
22311;BME280;11323;49.610;11.016;2023-02-02T09:11:47;98554.91;;;11.10;nan
22311;BME280;11323;49.610;11.016;2023-02-02T09:16:47;98548.47;;;11.14;nan
22311;BME280;11323;49.610;11.016;2023-02-02T09:21:49;98555.72;;;11.20;nan
22311;BME280;11323;49.610;11.016;2023-02-02T09:26:49;98552.44;;;11.28;nan
22311;BME280;11323;49.610;11.016;2023-02-02T09:31:50;98560.00;;;11.31;nan
22311;BME280;11323;49.610;11.016;2023-02-02T09:36:50;98553.47;;;11.74;nan
22311;BME280;11323;49.610;11.016;2023-02-02T09:48:26;98563.19;;;12.30;nan
22311;BME280;11323;49.610;11.016;2023-02-02T09:59:11;98570.75;;;12.33;nan
22311;BME280;11323;49.610;11.016;2023-02-02T10:04:39;98570.22;;;12.29;nan
22311;BME280;11323;49.610;11.016;2023-02-02T10:09:47;98575.88;;;12.25;nan
22311;BME280;11323;49.610;11.016;2023-02-02T10:14:58;98574.50;;;12.20;nan
22311;BME280;11323;49.610;11.016;2023-02-02T10:25:16;98552.41;;;12.05;nan
22311;BME280;11323;49.610;11.016;2023-02-02T10:30:24;98564.75;;;12.23;nan
22311;BME280;11323;49.610;11.016;2023-02-02T10:35:52;98558.66;;;12.60;nan
22311;BME280;11323;49.610;11.016;2023-02-02T10:41:19;98559.09;;;12.73;nan
22311;BME280;11323;49.610;11.016;2023-02-02T10:51:38;98560.63;;;12.48;nan
22311;BME280;11323;49.610;11.016;2023-02-02T10:56:44;98556.81;;;12.42;nan
22311;BME280;11323;49.610;11.016;2023-02-02T11:01:48;98563.31;;;12.38;nan
22311;BME280;11323;49.610;11.016;2023-02-02T11:06:48;98543.63;;;12.34;nan
22311;BME280;11323;49.610;11.016;2023-02-02T11:11:52;98544.88;;;12.30;nan
22311;BME280;11323;49.610;11.016;2023-02-02T11:17:05;98548.63;;;12.27;nan
22311;BME280;11323;49.610;11.016;2023-02-02T11:22:36;98544.53;;;12.25;nan
22311;BME280;11323;49.610;11.016;2023-02-02T11:27:39;98554.56;;;12.19;nan
22311;BME280;11323;49.610;11.016;2023-02-02T11:32:40;98551.94;;;12.19;nan
22311;BME280;11323;49.610;11.016;2023-02-02T11:38:08;98548.47;;;12.29;nan
22311;BME280;11323;49.610;11.016;2023-02-02T11:43:24;98549.91;;;12.41;nan
22311;BME280;11323;49.610;11.016;2023-02-02T11:48:29;98550.31;;;12.46;nan
22311;BME280;11323;49.610;11.016;2023-02-02T11:53:47;98536.97;;;12.49;nan
22311;BME280;11323;49.610;11.016;2023-02-02T11:58:49;98534.19;;;12.51;nan
22311;BME280;11323;49.610;11.016;2023-02-02T12:03:55;98544.28;;;12.64;nan
22311;BME280;11323;49.610;11.016;2023-02-02T12:08:58;98539.81;;;12.74;nan
22311;BME280;11323;49.610;11.016;2023-02-02T12:24:47;98538.16;;;12.73;nan
22311;BME280;11323;49.610;11.016;2023-02-02T12:40:15;98555.75;;;12.81;nan
22311;BME280;11323;49.610;11.016;2023-02-02T12:45:41;98568.59;;;13.10;nan
22311;BME280;11323;49.610;11.016;2023-02-02T12:51:05;98565.53;;;13.33;nan
22311;BME280;11323;49.610;11.016;2023-02-02T13:07:11;98575.44;;;13.39;nan
22311;BME280;11323;49.610;11.016;2023-02-02T13:12:18;98580.94;;;13.36;nan
22311;BME280;11323;49.610;11.016;2023-02-02T13:17:25;98576.84;;;13.34;nan
22311;BME280;11323;49.610;11.016;2023-02-02T13:22:39;98598.88;;;13.31;nan
22311;BME280;11323;49.610;11.016;2023-02-02T13:27:42;98602.19;;;13.33;nan
22311;BME280;11323;49.610;11.016;2023-02-02T13:32:45;98611.84;;;13.33;nan
22311;BME280;11323;49.610;11.016;2023-02-02T13:38:06;98619.31;;;13.27;nan
22311;BME280;11323;49.610;11.016;2023-02-02T13:43:21;98626.34;;;13.27;nan
22311;BME280;11323;49.610;11.016;2023-02-02T13:59:39;98651.78;;;13.71;nan
22311;BME280;11323;49.610;11.016;2023-02-02T14:04:51;98658.94;;;13.87;nan
22311;BME280;11323;49.610;11.016;2023-02-02T14:09:53;98662.31;;;13.79;nan
22311;BME280;11323;49.610;11.016;2023-02-02T14:14:54;98675.72;;;13.76;nan
22311;BME280;11323;49.610;11.016;2023-02-02T14:19:56;98693.22;;;13.75;nan
22311;BME280;11323;49.610;11.016;2023-02-02T14:24:57;98691.75;;;13.73;nan
22311;BME280;11323;49.610;11.016;2023-02-02T14:29:59;98701.41;;;13.72;nan
22311;BME280;11323;49.610;11.016;2023-02-02T14:40:44;98712.47;;;13.66;nan
22311;BME280;11323;49.610;11.016;2023-02-02T14:45:47;98723.56;;;13.32;nan
22311;BME280;11323;49.610;11.016;2023-02-02T14:50:53;98726.72;;;13.36;nan
22311;BME280;11323;49.610;11.016;2023-02-02T15:06:15;98737.63;;;13.31;nan
22311;BME280;11323;49.610;11.016;2023-02-02T15:11:23;98758.75;;;13.20;nan
22311;BME280;11323;49.610;11.016;2023-02-02T15:16:30;98764.94;;;13.28;nan
22311;BME280;11323;49.610;11.016;2023-02-02T15:21:35;98771.53;;;13.33;nan
22311;BME280;11323;49.610;11.016;2023-02-02T15:26:39;98772.16;;;13.44;nan
22311;BME280;11323;49.610;11.016;2023-02-02T15:31:44;98780.06;;;13.63;nan
22311;BME280;11323;49.610;11.016;2023-02-02T15:36:48;98789.59;;;13.82;nan
22311;BME280;11323;49.610;11.016;2023-02-02T15:41:51;98794.59;;;13.93;nan
22311;BME280;11323;49.610;11.016;2023-02-02T15:47:11;98800.81;;;13.92;nan
22311;BME280;11323;49.610;11.016;2023-02-02T15:52:26;98816.81;;;13.89;nan
22311;BME280;11323;49.610;11.016;2023-02-02T16:02:35;98821.03;;;13.82;nan
22311;BME280;11323;49.610;11.016;2023-02-02T16:07:38;98843.47;;;13.84;nan
22311;BME280;11323;49.610;11.016;2023-02-02T16:12:38;98839.56;;;13.70;nan
22311;BME280;11323;49.610;11.016;2023-02-02T16:17:39;98855.81;;;13.74;nan
22311;BME280;11323;49.610;11.016;2023-02-02T16:22:40;98859.91;;;13.77;nan
22311;BME280;11323;49.610;11.016;2023-02-02T16:27:43;98875.31;;;13.62;nan
22311;BME280;11323;49.610;11.016;2023-02-02T16:32:45;98885.72;;;13.43;nan
22311;BME280;11323;49.610;11.016;2023-02-02T16:37:46;98897.31;;;13.31;nan
22311;BME280;11323;49.610;11.016;2023-02-02T16:43:05;98906.44;;;13.27;nan
22311;BME280;11323;49.610;11.016;2023-02-02T16:53:27;98914.94;;;13.49;nan
22311;BME280;11323;49.610;11.016;2023-02-02T16:58:27;98916.19;;;13.44;nan
22311;BME280;11323;49.610;11.016;2023-02-02T17:03:31;98937.22;;;13.53;nan
22311;BME280;11323;49.610;11.016;2023-02-02T17:08:35;98932.22;;;13.69;nan
22311;BME280;11323;49.610;11.016;2023-02-02T17:13:39;98949.31;;;13.73;nan
22311;BME280;11323;49.610;11.016;2023-02-02T17:18:39;98963.75;;;13.78;nan
22311;BME280;11323;49.610;11.016;2023-02-02T17:23:40;98968.03;;;13.79;nan
22311;BME280;11323;49.610;11.016;2023-02-02T17:28:41;98960.59;;;13.74;nan
22311;BME280;11323;49.610;11.016;2023-02-02T17:33:42;98980.75;;;13.73;nan
22311;BME280;11323;49.610;11.016;2023-02-02T17:38:43;98986.25;;;13.70;nan
22311;BME280;11323;49.610;11.016;2023-02-02T17:43:43;99000.31;;;13.69;nan
22311;BME280;11323;49.610;11.016;2023-02-02T17:48:44;99005.56;;;13.69;nan
22311;BME280;11323;49.610;11.016;2023-02-02T17:53:44;99013.69;;;13.66;nan
22311;BME280;11323;49.610;11.016;2023-02-02T17:58:45;99017.97;;;13.67;nan
22311;BME280;11323;49.610;11.016;2023-02-02T18:03:45;99021.28;;;13.69;nan
22311;BME280;11323;49.610;11.016;2023-02-02T18:08:46;99001.69;;;13.73;nan
22311;BME280;11323;49.610;11.016;2023-02-02T18:13:47;99006.34;;;13.80;nan
22311;BME280;11323;49.610;11.016;2023-02-02T18:18:47;99002.75;;;13.81;nan
22311;BME280;11323;49.610;11.016;2023-02-02T18:23:47;99019.56;;;13.88;nan
22311;BME280;11323;49.610;11.016;2023-02-02T18:28:49;99028.09;;;13.90;nan
22311;BME280;11323;49.610;11.016;2023-02-02T18:33:50;99010.16;;;13.95;nan
22311;BME280;11323;49.610;11.016;2023-02-02T18:38:50;99022.56;;;13.93;nan
22311;BME280;11323;49.610;11.016;2023-02-02T18:43:53;99017.91;;;13.87;nan
22311;BME280;11323;49.610;11.016;2023-02-02T18:48:54;99029.66;;;13.73;nan
22311;BME280;11323;49.610;11.016;2023-02-02T18:53:54;99023.22;;;13.57;nan
22311;BME280;11323;49.610;11.016;2023-02-02T18:58:59;99048.34;;;13.50;nan
22311;BME280;11323;49.610;11.016;2023-02-02T19:03:59;99034.44;;;13.40;nan
22311;BME280;11323;49.610;11.016;2023-02-02T19:09:00;99038.13;;;13.37;nan
22311;BME280;11323;49.610;11.016;2023-02-02T19:14:00;99030.72;;;13.33;nan
22311;BME280;11323;49.610;11.016;2023-02-02T19:19:10;99032.38;;;13.34;nan
22311;BME280;11323;49.610;11.016;2023-02-02T19:24:12;99029.31;;;13.38;nan
22311;BME280;11323;49.610;11.016;2023-02-02T19:29:17;99033.16;;;13.54;nan
22311;BME280;11323;49.610;11.016;2023-02-02T19:34:20;99033.47;;;13.51;nan
22311;BME280;11323;49.610;11.016;2023-02-02T19:39:24;99039.50;;;13.61;nan
22311;BME280;11323;49.610;11.016;2023-02-02T19:44:30;99036.31;;;13.57;nan
22311;BME280;11323;49.610;11.016;2023-02-02T19:49:33;99039.78;;;13.58;nan
22311;BME280;11323;49.610;11.016;2023-02-02T19:54:36;99040.06;;;13.55;nan
22311;BME280;11323;49.610;11.016;2023-02-02T19:59:38;99045.28;;;13.55;nan
22311;BME280;11323;49.610;11.016;2023-02-02T20:04:39;99041.31;;;13.51;nan
22311;BME280;11323;49.610;11.016;2023-02-02T20:09:39;99040.63;;;13.49;nan
22311;BME280;11323;49.610;11.016;2023-02-02T20:14:40;99032.34;;;13.43;nan
22311;BME280;11323;49.610;11.016;2023-02-02T20:19:41;99022.69;;;13.34;nan
22311;BME280;11323;49.610;11.016;2023-02-02T20:24:44;99028.94;;;13.43;nan
22311;BME280;11323;49.610;11.016;2023-02-02T20:29:49;99034.00;;;13.44;nan
22311;BME280;11323;49.610;11.016;2023-02-02T20:34:52;99045.03;;;13.38;nan
22311;BME280;11323;49.610;11.016;2023-02-02T20:44:56;99041.19;;;13.42;nan
22311;BME280;11323;49.610;11.016;2023-02-02T20:49:57;99042.28;;;13.40;nan
22311;BME280;11323;49.610;11.016;2023-02-02T20:55:00;99043.66;;;13.34;nan
22311;BME280;11323;49.610;11.016;2023-02-02T21:00:01;99044.47;;;13.35;nan
22311;BME280;11323;49.610;11.016;2023-02-02T21:05:01;99058.81;;;13.31;nan
22311;BME280;11323;49.610;11.016;2023-02-02T21:10:01;99046.13;;;13.26;nan
22311;BME280;11323;49.610;11.016;2023-02-02T21:15:02;99051.06;;;13.29;nan
22311;BME280;11323;49.610;11.016;2023-02-02T21:20:03;99049.72;;;13.25;nan
22311;BME280;11323;49.610;11.016;2023-02-02T21:25:04;99048.34;;;13.21;nan
22311;BME280;11323;49.610;11.016;2023-02-02T21:30:05;99054.00;;;13.26;nan
22311;BME280;11323;49.610;11.016;2023-02-02T21:35:05;99050.00;;;13.22;nan
22311;BME280;11323;49.610;11.016;2023-02-02T21:40:12;99048.06;;;13.24;nan
22311;BME280;11323;49.610;11.016;2023-02-02T21:50:27;99047.38;;;13.22;nan
22311;BME280;11323;49.610;11.016;2023-02-02T21:55:35;99043.91;;;13.31;nan
22311;BME280;11323;49.610;11.016;2023-02-02T22:00:36;99035.09;;;13.32;nan
22311;BME280;11323;49.610;11.016;2023-02-02T22:05:36;99043.38;;;13.37;nan
22311;BME280;11323;49.610;11.016;2023-02-02T22:10:38;99048.59;;;13.37;nan
22311;BME280;11323;49.610;11.016;2023-02-02T22:15:40;99050.53;;;13.35;nan
22311;BME280;11323;49.610;11.016;2023-02-02T22:20:41;99050.84;;;13.42;nan
22311;BME280;11323;49.610;11.016;2023-02-02T22:25:48;99038.41;;;13.34;nan
22311;BME280;11323;49.610;11.016;2023-02-02T22:30:53;99026.13;;;13.35;nan
22311;BME280;11323;49.610;11.016;2023-02-02T22:35:54;99022.97;;;13.31;nan
22311;BME280;11323;49.610;11.016;2023-02-02T22:40:54;99019.13;;;13.35;nan
22311;BME280;11323;49.610;11.016;2023-02-02T22:45:54;99021.59;;;13.37;nan
22311;BME280;11323;49.610;11.016;2023-02-02T22:50:55;99022.69;;;13.34;nan
22311;BME280;11323;49.610;11.016;2023-02-02T22:55:55;99027.66;;;13.37;nan
22311;BME280;11323;49.610;11.016;2023-02-02T23:00:56;99034.97;;;13.34;nan
22311;BME280;11323;49.610;11.016;2023-02-02T23:05:56;99030.56;;;13.34;nan
22311;BME280;11323;49.610;11.016;2023-02-02T23:10:56;99034.00;;;13.25;nan
22311;BME280;11323;49.610;11.016;2023-02-02T23:15:57;99043.09;;;13.21;nan
22311;BME280;11323;49.610;11.016;2023-02-02T23:20:57;99040.09;;;13.16;nan
22311;BME280;11323;49.610;11.016;2023-02-02T23:25:57;99048.91;;;13.15;nan
22311;BME280;11323;49.610;11.016;2023-02-02T23:30:58;99056.31;;;13.09;nan
22311;BME280;11323;49.610;11.016;2023-02-02T23:35:58;99044.19;;;12.79;nan
22311;BME280;11323;49.610;11.016;2023-02-02T23:40:59;99042.25;;;12.61;nan
22311;BME280;11323;49.610;11.016;2023-02-02T23:45:59;99057.78;;;12.53;nan
22311;BME280;11323;49.610;11.016;2023-02-02T23:51:00;99053.63;;;12.41;nan
22311;BME280;11323;49.610;11.016;2023-02-02T23:56:00;99055.38;;;12.30;nan
